Аэропорт: Наримановка. Костанай

ICAO: UAUU

METAR:
2022-06-26 11:30:00
UAUU 261130Z 32006MPS 9999 BKN050CB 21/08 Q1004 NOSIG RMK QFE738/0984
METAR:
2022-06-26 08:01:00
TAF UAUU 260801Z 2609/2618 32006G11MPS 9999 BKN040 TEMPO 2609/2615 33009G14MPS